sensor_id;sensor_type;location;lat;lon;timestamp;pressure;altitude;pressure_sealevel;temperature;humidity
8049;BME280;20935;42.660;23.342;2023-04-20T00:01:16;94396.78;;;11.24;95.35
8049;BME280;20935;42.660;23.342;2023-04-20T00:04:05;94393.75;;;11.22;94.81
8049;BME280;20935;42.660;23.342;2023-04-20T00:06:51;94389.09;;;11.26;94.03
8049;BME280;20935;42.660;23.342;2023-04-20T00:09:37;94394.09;;;10.98;99.19
8049;BME280;20935;42.660;23.342;2023-04-20T00:12:23;94377.81;;;11.12;94.33
8049;BME280;20935;42.660;23.342;2023-04-20T00:15:09;94392.72;;;11.13;94.93
8049;BME280;20935;42.660;23.342;2023-04-20T00:17:54;94386.97;;;11.14;95.32
8049;BME280;20935;42.660;23.342;2023-04-20T00:20:39;94376.16;;;11.21;95.53
8049;BME280;20935;42.660;23.342;2023-04-20T00:23:26;94381.09;;;10.96;97.76
8049;BME280;20935;42.660;23.342;2023-04-20T00:26:12;94377.44;;;10.83;99.74
8049;BME280;20935;42.660;23.342;2023-04-20T00:28:57;94375.53;;;10.83;99.64
8049;BME280;20935;42.660;23.342;2023-04-20T00:31:42;94375.03;;;10.92;99.38
8049;BME280;20935;42.660;23.342;2023-04-20T00:34:28;94367.41;;;10.91;100.00
8049;BME280;20935;42.660;23.342;2023-04-20T00:37:13;94370.22;;;11.07;98.15
8049;BME280;20935;42.660;23.342;2023-04-20T00:40:00;94378.91;;;10.88;100.00
8049;BME280;20935;42.660;23.342;2023-04-20T00:42:46;94364.72;;;10.91;100.00
8049;BME280;20935;42.660;23.342;2023-04-20T00:45:35;94373.06;;;10.96;100.00
8049;BME280;20935;42.660;23.342;2023-04-20T00:48:20;94371.50;;;10.99;100.00
8049;BME280;20935;42.660;23.342;2023-04-20T00:51:06;94370.38;;;10.96;100.00
8049;BME280;20935;42.660;23.342;2023-04-20T00:53:51;94375.88;;;10.86;100.00
8049;BME280;20935;42.660;23.342;2023-04-20T00:56:38;94366.59;;;10.63;100.00
8049;BME280;20935;42.660;23.342;2023-04-20T00:59:24;94368.41;;;10.73;100.00
8049;BME280;20935;42.660;23.342;2023-04-20T01:02:09;94370.38;;;10.69;100.00
8049;BME280;20935;42.660;23.342;2023-04-20T01:04:55;94370.19;;;10.53;100.00
8049;BME280;20935;42.660;23.342;2023-04-20T01:07:40;94378.50;;;10.62;100.00
8049;BME280;20935;42.660;23.342;2023-04-20T01:10:25;94364.47;;;10.51;100.00
8049;BME280;20935;42.660;23.342;2023-04-20T01:13:12;94370.75;;;10.68;100.00
8049;BME280;20935;42.660;23.342;2023-04-20T01:15:58;94371.03;;;10.47;100.00
8049;BME280;20935;42.660;23.342;2023-04-20T01:18:46;94368.88;;;10.34;100.00
8049;BME280;20935;42.660;23.342;2023-04-20T01:21:31;94372.25;;;10.42;100.00
8049;BME280;20935;42.660;23.342;2023-04-20T01:24:18;94369.19;;;10.40;100.00
8049;BME280;20935;42.660;23.342;2023-04-20T01:27:06;94374.69;;;10.29;100.00
8049;BME280;20935;42.660;23.342;2023-04-20T01:29:51;94371.66;;;10.24;100.00
8049;BME280;20935;42.660;23.342;2023-04-20T01:32:37;94365.88;;;10.29;100.00
8049;BME280;20935;42.660;23.342;2023-04-20T01:35:22;94368.28;;;10.20;100.00
8049;BME280;20935;42.660;23.342;2023-04-20T01:38:08;94360.28;;;10.16;100.00
8049;BME280;20935;42.660;23.342;2023-04-20T01:40:55;94357.09;;;10.28;100.00
8049;BME280;20935;42.660;23.342;2023-04-20T01:43:40;94359.47;;;10.19;100.00
8049;BME280;20935;42.660;23.342;2023-04-20T01:46:25;94359.09;;;10.21;100.00
8049;BME280;20935;42.660;23.342;2023-04-20T01:49:11;94358.09;;;10.42;100.00
8049;BME280;20935;42.660;23.342;2023-04-20T01:51:56;94352.41;;;10.36;100.00
8049;BME280;20935;42.660;23.342;2023-04-20T01:54:42;94353.69;;;10.24;100.00
8049;BME280;20935;42.660;23.342;2023-04-20T01:57:28;94351.44;;;10.23;100.00
8049;BME280;20935;42.660;23.342;2023-04-20T02:00:15;94348.19;;;10.39;100.00
8049;BME280;20935;42.660;23.342;2023-04-20T02:03:00;94353.88;;;10.41;100.00
8049;BME280;20935;42.660;23.342;2023-04-20T02:05:45;94341.22;;;10.45;100.00
8049;BME280;20935;42.660;23.342;2023-04-20T02:08:31;94342.94;;;10.28;100.00
8049;BME280;20935;42.660;23.342;2023-04-20T02:11:17;94344.66;;;10.15;100.00
8049;BME280;20935;42.660;23.342;2023-04-20T02:14:04;94339.31;;;10.08;100.00
8049;BME280;20935;42.660;23.342;2023-04-20T02:16:49;94350.00;;;10.15;100.00
8049;BME280;20935;42.660;23.342;2023-04-20T02:19:36;94344.47;;;10.29;100.00
8049;BME280;20935;42.660;23.342;2023-04-20T02:22:21;94349.63;;;10.47;100.00
8049;BME280;20935;42.660;23.342;2023-04-20T02:25:07;94343.31;;;10.30;100.00
8049;BME280;20935;42.660;23.342;2023-04-20T02:27:53;94345.84;;;10.41;100.00
8049;BME280;20935;42.660;23.342;2023-04-20T02:30:40;94347.00;;;10.40;100.00
8049;BME280;20935;42.660;23.342;2023-04-20T02:33:26;94343.56;;;10.39;100.00
8049;BME280;20935;42.660;23.342;2023-04-20T02:36:12;94341.44;;;10.27;100.00
8049;BME280;20935;42.660;23.342;2023-04-20T02:38:57;94340.41;;;10.17;100.00
8049;BME280;20935;42.660;23.342;2023-04-20T02:41:43;94343.41;;;10.23;100.00
8049;BME280;20935;42.660;23.342;2023-04-20T02:44:28;94354.13;;;10.23;100.00
8049;BME280;20935;42.660;23.342;2023-04-20T02:47:15;94352.78;;;10.01;100.00
8049;BME280;20935;42.660;23.342;2023-04-20T02:50:00;94346.44;;;10.25;100.00
8049;BME280;20935;42.660;23.342;2023-04-20T02:52:45;94350.44;;;10.06;100.00
8049;BME280;20935;42.660;23.342;2023-04-20T02:55:31;94352.75;;;10.42;100.00
8049;BME280;20935;42.660;23.342;2023-04-20T02:58:17;94349.34;;;10.38;100.00
8049;BME280;20935;42.660;23.342;2023-04-20T03:01:02;94347.97;;;10.26;100.00
8049;BME280;20935;42.660;23.342;2023-04-20T03:03:49;94343.41;;;10.23;100.00
8049;BME280;20935;42.660;23.342;2023-04-20T03:06:35;94351.59;;;10.43;100.00
8049;BME280;20935;42.660;23.342;2023-04-20T03:09:20;94351.84;;;10.52;100.00
8049;BME280;20935;42.660;23.342;2023-04-20T03:12:06;94349.25;;;10.07;100.00
8049;BME280;20935;42.660;23.342;2023-04-20T03:14:51;94346.16;;;10.12;100.00
8049;BME280;20935;42.660;23.342;2023-04-20T03:17:37;94344.94;;;10.20;100.00
8049;BME280;20935;42.660;23.342;2023-04-20T03:20:23;94341.47;;;10.23;100.00
8049;BME280;20935;42.660;23.342;2023-04-20T03:23:12;94337.69;;;10.21;100.00
8049;BME280;20935;42.660;23.342;2023-04-20T03:25:57;94335.72;;;10.25;100.00
8049;BME280;20935;42.660;23.342;2023-04-20T03:28:42;94348.88;;;10.09;100.00
8049;BME280;20935;42.660;23.342;2023-04-20T03:31:28;94339.44;;;10.34;100.00
8049;BME280;20935;42.660;23.342;2023-04-20T03:34:13;94354.84;;;10.27;100.00
8049;BME280;20935;42.660;23.342;2023-04-20T03:37:00;94346.16;;;10.16;100.00
8049;BME280;20935;42.660;23.342;2023-04-20T03:39:46;94343.56;;;10.05;100.00
8049;BME280;20935;42.660;23.342;2023-04-20T03:42:32;94349.63;;;10.43;100.00
8049;BME280;20935;42.660;23.342;2023-04-20T03:45:17;94352.66;;;10.49;100.00
8049;BME280;20935;42.660;23.342;2023-04-20T03:48:03;94350.94;;;10.31;100.00
8049;BME280;20935;42.660;23.342;2023-04-20T03:50:49;94339.94;;;10.26;100.00
8049;BME280;20935;42.660;23.342;2023-04-20T03:53:36;94340.66;;;10.30;100.00
8049;BME280;20935;42.660;23.342;2023-04-20T03:56:21;94351.16;;;10.44;100.00
8049;BME280;20935;42.660;23.342;2023-04-20T03:59:06;94351.34;;;10.60;100.00
8049;BME280;20935;42.660;23.342;2023-04-20T04:01:52;94356.09;;;10.76;100.00
8049;BME280;20935;42.660;23.342;2023-04-20T04:04:39;94359.03;;;10.58;100.00
8049;BME280;20935;42.660;23.342;2023-04-20T04:07:25;94354.78;;;10.61;100.00
8049;BME280;20935;42.660;23.342;2023-04-20T04:10:11;94359.88;;;10.52;100.00
8049;BME280;20935;42.660;23.342;2023-04-20T04:12:57;94369.56;;;10.42;100.00
8049;BME280;20935;42.660;23.342;2023-04-20T04:15:42;94369.19;;;10.40;100.00
8049;BME280;20935;42.660;23.342;2023-04-20T04:18:29;94361.53;;;10.42;100.00
8049;BME280;20935;42.660;23.342;2023-04-20T04:21:15;94372.22;;;10.72;100.00
8049;BME280;20935;42.660;23.342;2023-04-20T04:24:01;94366.75;;;10.53;100.00
8049;BME280;20935;42.660;23.342;2023-04-20T04:26:47;94358.00;;;10.49;100.00
8049;BME280;20935;42.660;23.342;2023-04-20T04:29:33;94362.97;;;10.50;100.00
8049;BME280;20935;42.660;23.342;2023-04-20T04:32:19;94369.75;;;10.58;100.00
8049;BME280;20935;42.660;23.342;2023-04-20T04:35:04;94366.59;;;10.63;100.00
8049;BME280;20935;42.660;23.342;2023-04-20T04:37:50;94372.59;;;10.74;100.00
8049;BME280;20935;42.660;23.342;2023-04-20T04:40:39;94370.09;;;10.91;100.00
8049;BME280;20935;42.660;23.342;2023-04-20T04:43:29;94374.09;;;10.75;100.00
8049;BME280;20935;42.660;23.342;2023-04-20T04:46:16;94381.03;;;10.73;100.00
8049;BME280;20935;42.660;23.342;2023-04-20T04:49:02;94377.31;;;10.94;100.00
8049;BME280;20935;42.660;23.342;2023-04-20T04:51:48;94387.22;;;10.97;100.00
8049;BME280;20935;42.660;23.342;2023-04-20T04:54:34;94385.34;;;10.94;100.00
8049;BME280;20935;42.660;23.342;2023-04-20T04:57:19;94389.56;;;10.95;100.00
8049;BME280;20935;42.660;23.342;2023-04-20T05:00:07;94395.97;;;11.01;100.00
8049;BME280;20935;42.660;23.342;2023-04-20T05:02:55;94387.06;;;11.07;100.00
8049;BME280;20935;42.660;23.342;2023-04-20T05:05:40;94396.28;;;10.76;100.00
8049;BME280;20935;42.660;23.342;2023-04-20T05:08:26;94396.19;;;10.83;100.00
8049;BME280;20935;42.660;23.342;2023-04-20T05:11:12;94398.81;;;10.56;100.00
8049;BME280;20935;42.660;23.342;2023-04-20T05:13:57;94391.78;;;10.69;100.00
8049;BME280;20935;42.660;23.342;2023-04-20T05:16:45;94389.69;;;10.84;100.00
8049;BME280;20935;42.660;23.342;2023-04-20T05:19:30;94389.22;;;10.89;100.00
8049;BME280;20935;42.660;23.342;2023-04-20T05:22:16;94400.66;;;10.93;100.00
8049;BME280;20935;42.660;23.342;2023-04-20T05:25:01;94398.69;;;10.97;100.00
8049;BME280;20935;42.660;23.342;2023-04-20T05:27:46;94389.22;;;10.89;100.00
8049;BME280;20935;42.660;23.342;2023-04-20T05:30:32;94399.97;;;11.16;100.00
8049;BME280;20935;42.660;23.342;2023-04-20T05:33:19;94387.81;;;11.08;100.00
8049;BME280;20935;42.660;23.342;2023-04-20T05:36:07;94396.94;;;11.14;100.00
8049;BME280;20935;42.660;23.342;2023-04-20T05:38:53;94404.66;;;11.08;100.00
8049;BME280;20935;42.660;23.342;2023-04-20T05:41:38;94406.25;;;11.06;100.00
8049;BME280;20935;42.660;23.342;2023-04-20T05:44:23;94401.00;;;10.95;100.00
8049;BME280;20935;42.660;23.342;2023-04-20T05:47:09;94398.97;;;11.06;100.00
8049;BME280;20935;42.660;23.342;2023-04-20T05:49:56;94402.38;;;11.07;100.00
8049;BME280;20935;42.660;23.342;2023-04-20T05:52:41;94404.66;;;11.08;100.00
8049;BME280;20935;42.660;23.342;2023-04-20T05:55:27;94393.72;;;10.96;100.00
8049;BME280;20935;42.660;23.342;2023-04-20T05:58:12;94397.88;;;11.00;100.00
8049;BME280;20935;42.660;23.342;2023-04-20T06:00:57;94409.31;;;11.04;100.00
8049;BME280;20935;42.660;23.342;2023-04-20T06:03:44;94407.03;;;11.03;100.00
8049;BME280;20935;42.660;23.342;2023-04-20T06:06:31;94400.72;;;11.16;100.00
8049;BME280;20935;42.660;23.342;2023-04-20T06:09:16;94405.31;;;11.16;100.00
8049;BME280;20935;42.660;23.342;2023-04-20T06:12:02;94407.53;;;11.21;100.00
8049;BME280;20935;42.660;23.342;2023-04-20T06:14:48;94401.19;;;11.35;100.00
8049;BME280;20935;42.660;23.342;2023-04-20T06:17:34;94401.69;;;11.29;100.00
8049;BME280;20935;42.660;23.342;2023-04-20T06:20:20;94398.56;;;11.31;100.00
8049;BME280;20935;42.660;23.342;2023-04-20T06:23:07;94403.88;;;11.35;100.00
8049;BME280;20935;42.660;23.342;2023-04-20T06:25:52;94409.66;;;11.33;100.00
8049;BME280;20935;42.660;23.342;2023-04-20T06:28:38;94409.22;;;11.38;100.00
8049;BME280;20935;42.660;23.342;2023-04-20T06:31:23;94408.84;;;11.36;100.00
8049;BME280;20935;42.660;23.342;2023-04-20T06:34:09;94400.97;;;11.25;100.00
8049;BME280;20935;42.660;23.342;2023-04-20T06:36:55;94404.75;;;11.01;100.00
8049;BME280;20935;42.660;23.342;2023-04-20T06:39:42;94409.38;;;11.01;100.00
8049;BME280;20935;42.660;23.342;2023-04-20T06:42:27;94415.03;;;11.06;100.00
8049;BME280;20935;42.660;23.342;2023-04-20T06:45:13;94414.88;;;11.17;100.00
8049;BME280;20935;42.660;23.342;2023-04-20T06:48:01;94418.78;;;11.12;100.00
8049;BME280;20935;42.660;23.342;2023-04-20T06:50:46;94420.78;;;11.05;100.00
8049;BME280;20935;42.660;23.342;2023-04-20T06:53:31;94427.13;;;11.18;100.00
8049;BME280;20935;42.660;23.342;2023-04-20T06:56:18;94435.06;;;11.25;100.00
8049;BME280;20935;42.660;23.342;2023-04-20T06:59:04;94431.41;;;11.12;100.00
8049;BME280;20935;42.660;23.342;2023-04-20T07:01:50;94436.25;;;10.94;100.00
8049;BME280;20935;42.660;23.342;2023-04-20T07:04:35;94426.00;;;11.15;100.00
8049;BME280;20935;42.660;23.342;2023-04-20T07:07:21;94434.44;;;11.41;100.00
8049;BME280;20935;42.660;23.342;2023-04-20T07:10:07;94441.53;;;11.54;100.00
8049;BME280;20935;42.660;23.342;2023-04-20T07:12:54;94445.13;;;11.44;100.00
8049;BME280;20935;42.660;23.342;2023-04-20T07:15:40;94438.81;;;11.58;100.00
8049;BME280;20935;42.660;23.342;2023-04-20T07:18:26;94439.66;;;11.78;100.00
8049;BME280;20935;42.660;23.342;2023-04-20T07:21:12;94435.25;;;11.64;100.00
8049;BME280;20935;42.660;23.342;2023-04-20T07:23:58;94430.59;;;11.68;100.00
8049;BME280;20935;42.660;23.342;2023-04-20T07:26:43;94442.50;;;11.91;100.00
8049;BME280;20935;42.660;23.342;2023-04-20T07:29:30;94442.72;;;12.23;100.00
8049;BME280;20935;42.660;23.342;2023-04-20T07:32:16;94435.69;;;12.09;100.00
8049;BME280;20935;42.660;23.342;2023-04-20T07:35:01;94436.78;;;12.12;100.00
8049;BME280;20935;42.660;23.342;2023-04-20T07:37:46;94435.44;;;12.00;100.00
8049;BME280;20935;42.660;23.342;2023-04-20T07:40:32;94435.03;;;12.25;100.00
8049;BME280;20935;42.660;23.342;2023-04-20T07:43:17;94442.94;;;12.32;99.36
8049;BME280;20935;42.660;23.342;2023-04-20T07:46:04;94439.38;;;12.58;95.77
8049;BME280;20935;42.660;23.342;2023-04-20T07:48:50;94438.84;;;12.67;93.92
8049;BME280;20935;42.660;23.342;2023-04-20T07:51:35;94435.41;;;13.22;90.57
8049;BME280;20935;42.660;23.342;2023-04-20T07:54:21;94438.16;;;13.38;87.83
8049;BME280;20935;42.660;23.342;2023-04-20T07:57:06;94443.66;;;12.95;88.55
8049;BME280;20935;42.660;23.342;2023-04-20T07:59:52;94435.34;;;13.06;87.04
8049;BME280;20935;42.660;23.342;2023-04-20T08:02:39;94433.22;;;13.53;85.20
8049;BME280;20935;42.660;23.342;2023-04-20T08:05:24;94446.19;;;13.22;85.80
8049;BME280;20935;42.660;23.342;2023-04-20T08:08:11;94438.22;;;13.35;84.78
8049;BME280;20935;42.660;23.342;2023-04-20T08:10:56;94444.72;;;13.37;84.87
8049;BME280;20935;42.660;23.342;2023-04-20T08:13:43;94447.50;;;13.50;83.03
8049;BME280;20935;42.660;23.342;2023-04-20T08:16:28;94444.22;;;14.39;78.37
8049;BME280;20935;42.660;23.342;2023-04-20T08:19:15;94435.47;;;14.03;80.06
8049;BME280;20935;42.660;23.342;2023-04-20T08:22:01;94429.25;;;14.06;79.50
8049;BME280;20935;42.660;23.342;2023-04-20T08:24:46;94438.06;;;14.39;78.68
8049;BME280;20935;42.660;23.342;2023-04-20T08:27:33;94432.78;;;13.87;81.30
8049;BME280;20935;42.660;23.342;2023-04-20T08:30:19;94453.31;;;13.48;80.53
8049;BME280;20935;42.660;23.342;2023-04-20T08:33:04;94435.22;;;13.33;83.87
8049;BME280;20935;42.660;23.342;2023-04-20T08:35:51;94450.19;;;13.50;82.97
8049;BME280;20935;42.660;23.342;2023-04-20T08:38:37;94452.47;;;13.51;82.87
8049;BME280;20935;42.660;23.342;2023-04-20T08:41:23;94446.16;;;13.58;82.59
8049;BME280;20935;42.660;23.342;2023-04-20T08:44:09;94451.47;;;13.45;83.31
8049;BME280;20935;42.660;23.342;2023-04-20T08:46:54;94456.25;;;13.54;82.37
8049;BME280;20935;42.660;23.342;2023-04-20T08:49:41;94437.31;;;13.41;82.76
8049;BME280;20935;42.660;23.342;2023-04-20T08:52:29;94456.00;;;13.12;84.08
8049;BME280;20935;42.660;23.342;2023-04-20T08:55:15;94443.84;;;13.24;85.13
8049;BME280;20935;42.660;23.342;2023-04-20T08:58:01;94450.13;;;13.53;84.74
8049;BME280;20935;42.660;23.342;2023-04-20T09:00:46;94449.22;;;13.24;84.59
8049;BME280;20935;42.660;23.342;2023-04-20T09:03:33;94454.88;;;13.10;83.69
8049;BME280;20935;42.660;23.342;2023-04-20T09:06:19;94460.31;;;12.87;84.84
8049;BME280;20935;42.660;23.342;2023-04-20T09:09:10;94446.53;;;13.04;85.18
8049;BME280;20935;42.660;23.342;2023-04-20T09:11:59;94432.66;;;13.06;84.94
8049;BME280;20935;42.660;23.342;2023-04-20T09:14:46;94448.06;;;13.05;85.59
8049;BME280;20935;42.660;23.342;2023-04-20T09:17:34;94440.81;;;13.02;84.98
8049;BME280;20935;42.660;23.342;2023-04-20T09:20:28;94449.09;;;13.63;83.25
8049;BME280;20935;42.660;23.342;2023-04-20T09:23:15;94444.41;;;13.68;82.00
8049;BME280;20935;42.660;23.342;2023-04-20T09:26:03;94442.38;;;13.88;79.68
8049;BME280;20935;42.660;23.342;2023-04-20T09:28:48;94440.75;;;14.23;78.01
8049;BME280;20935;42.660;23.342;2023-04-20T09:31:35;94442.59;;;14.71;75.18
8049;BME280;20935;42.660;23.342;2023-04-20T09:34:22;94441.28;;;14.63;74.08
8049;BME280;20935;42.660;23.342;2023-04-20T09:37:08;94433.28;;;14.59;72.73
8049;BME280;20935;42.660;23.342;2023-04-20T09:39:58;94425.31;;;14.55;72.80
8049;BME280;20935;42.660;23.342;2023-04-20T09:42:46;94432.91;;;14.44;73.48
8049;BME280;20935;42.660;23.342;2023-04-20T09:45:33;94430.78;;;14.52;73.00
8049;BME280;20935;42.660;23.342;2023-04-20T09:48:19;94427.97;;;14.97;70.37
8049;BME280;20935;42.660;23.342;2023-04-20T09:51:05;94428.59;;;14.76;70.45
8049;BME280;20935;42.660;23.342;2023-04-20T09:53:51;94441.47;;;15.51;68.14
8049;BME280;20935;42.660;23.342;2023-04-20T09:56:38;94431.91;;;16.10;64.31
8049;BME280;20935;42.660;23.342;2023-04-20T09:59:25;94425.63;;;16.13;62.80
8049;BME280;20935;42.660;23.342;2023-04-20T10:02:12;94427.81;;;16.39;61.88
8049;BME280;20935;42.660;23.342;2023-04-20T10:04:58;94421.81;;;15.50;64.74
8049;BME280;20935;42.660;23.342;2023-04-20T10:07:44;94418.03;;;15.48;65.70
8049;BME280;20935;42.660;23.342;2023-04-20T10:10:30;94407.66;;;15.59;65.73
8049;BME280;20935;42.660;23.342;2023-04-20T10:13:32;94415.13;;;15.68;64.10
8049;BME280;20935;42.660;23.342;2023-04-20T10:16:19;94428.81;;;15.48;64.68
8049;BME280;20935;42.660;23.342;2023-04-20T10:19:04;94415.75;;;15.46;65.52
8049;BME280;20935;42.660;23.342;2023-04-20T10:21:50;94404.75;;;15.54;65.33
8049;BME280;20935;42.660;23.342;2023-04-20T10:24:35;94397.28;;;15.20;66.38
8049;BME280;20935;42.660;23.342;2023-04-20T10:27:22;94406.56;;;15.82;63.53
8049;BME280;20935;42.660;23.342;2023-04-20T10:30:08;94407.31;;;15.70;63.69
8049;BME280;20935;42.660;23.342;2023-04-20T10:33:07;94396.19;;;15.30;64.69
8049;BME280;20935;42.660;23.342;2023-04-20T10:35:54;94408.50;;;15.31;66.12
8049;BME280;20935;42.660;23.342;2023-04-20T10:38:41;94397.88;;;15.53;65.04
8049;BME280;20935;42.660;23.342;2023-04-20T10:41:27;94398.22;;;15.89;62.45
8049;BME280;20935;42.660;23.342;2023-04-20T10:44:12;94395.84;;;15.91;61.79
8049;BME280;20935;42.660;23.342;2023-04-20T10:46:57;94397.28;;;15.70;63.51
8049;BME280;20935;42.660;23.342;2023-04-20T10:49:44;94401.13;;;16.29;61.39
8049;BME280;20935;42.660;23.342;2023-04-20T10:52:33;94396.28;;;15.77;61.43
8049;BME280;20935;42.660;23.342;2023-04-20T10:55:21;94398.66;;;16.00;61.32
8049;BME280;20935;42.660;23.342;2023-04-20T10:58:07;94401.81;;;16.55;57.76
8049;BME280;20935;42.660;23.342;2023-04-20T11:00:56;94403.63;;;17.01;56.88
8049;BME280;20935;42.660;23.342;2023-04-20T11:03:48;94390.63;;;16.43;58.59
8049;BME280;20935;42.660;23.342;2023-04-20T11:06:36;94398.34;;;17.19;56.45
8049;BME280;20935;42.660;23.342;2023-04-20T11:09:23;94402.13;;;17.00;56.60
8049;BME280;20935;42.660;23.342;2023-04-20T11:12:11;94396.63;;;17.13;55.54
8049;BME280;20935;42.660;23.342;2023-04-20T11:14:57;94388.63;;;17.71;55.73
8049;BME280;20935;42.660;23.342;2023-04-20T11:17:45;94387.94;;;17.18;55.74
8049;BME280;20935;42.660;23.342;2023-04-20T11:20:31;94383.28;;;17.18;56.38
8049;BME280;20935;42.660;23.342;2023-04-20T11:23:19;94379.59;;;17.03;56.07
8049;BME280;20935;42.660;23.342;2023-04-20T11:26:06;94378.84;;;16.37;57.37
8049;BME280;20935;42.660;23.342;2023-04-20T11:28:52;94376.78;;;16.85;56.40
8049;BME280;20935;42.660;23.342;2023-04-20T11:31:38;94377.41;;;16.45;58.03
8049;BME280;20935;42.660;23.342;2023-04-20T11:34:23;94377.28;;;16.27;58.75
8049;BME280;20935;42.660;23.342;2023-04-20T11:37:09;94373.34;;;16.28;58.78
8049;BME280;20935;42.660;23.342;2023-04-20T11:40:04;94371.06;;;16.61;58.40
8049;BME280;20935;42.660;23.342;2023-04-20T11:42:52;94370.59;;;17.06;56.10
8049;BME280;20935;42.660;23.342;2023-04-20T11:45:38;94362.41;;;17.28;55.14
8049;BME280;20935;42.660;23.342;2023-04-20T11:48:24;94371.00;;;16.74;55.42
8049;BME280;20935;42.660;23.342;2023-04-20T11:51:10;94370.25;;;16.73;56.16
8049;BME280;20935;42.660;23.342;2023-04-20T11:53:56;94368.84;;;17.21;54.95
8049;BME280;20935;42.660;23.342;2023-04-20T11:56:43;94369.66;;;17.00;54.31
8049;BME280;20935;42.660;23.342;2023-04-20T11:59:29;94363.59;;;16.87;53.66
8049;BME280;20935;42.660;23.342;2023-04-20T12:02:14;94368.63;;;16.76;54.36
8049;BME280;20935;42.660;23.342;2023-04-20T12:04:59;94356.59;;;16.33;56.07
8049;BME280;20935;42.660;23.342;2023-04-20T12:07:45;94348.16;;;16.31;55.53
8049;BME280;20935;42.660;23.342;2023-04-20T12:10:31;94351.16;;;16.12;55.90
8049;BME280;20935;42.660;23.342;2023-04-20T12:13:18;94356.50;;;16.03;56.24
8049;BME280;20935;42.660;23.342;2023-04-20T12:16:04;94359.31;;;15.99;56.90
8049;BME280;20935;42.660;23.342;2023-04-20T12:18:49;94360.53;;;16.20;56.58
8049;BME280;20935;42.660;23.342;2023-04-20T12:21:35;94368.69;;;15.47;59.70
8049;BME280;20935;42.660;23.342;2023-04-20T12:24:20;94362.75;;;15.15;62.26
8049;BME280;20935;42.660;23.342;2023-04-20T12:27:06;94357.88;;;15.10;62.79
8049;BME280;20935;42.660;23.342;2023-04-20T12:29:53;94354.44;;;15.09;63.42
8049;BME280;20935;42.660;23.342;2023-04-20T12:32:38;94358.31;;;14.95;63.94
8049;BME280;20935;42.660;23.342;2023-04-20T12:35:24;94354.34;;;15.00;65.29
8049;BME280;20935;42.660;23.342;2023-04-20T12:38:09;94348.19;;;15.12;64.53
8049;BME280;20935;42.660;23.342;2023-04-20T12:40:55;94347.75;;;15.39;63.98
8049;BME280;20935;42.660;23.342;2023-04-20T12:43:41;94353.66;;;15.34;62.67
8049;BME280;20935;42.660;23.342;2023-04-20T12:46:27;94345.56;;;15.72;60.99
8049;BME280;20935;42.660;23.342;2023-04-20T12:49:13;94345.53;;;15.84;59.81
8049;BME280;20935;42.660;23.342;2023-04-20T12:51:58;94349.56;;;16.02;60.25
8049;BME280;20935;42.660;23.342;2023-04-20T12:54:43;94343.75;;;16.90;58.06
8049;BME280;20935;42.660;23.342;2023-04-20T12:57:29;94350.91;;;17.46;56.39
8049;BME280;20935;42.660;23.342;2023-04-20T13:00:15;94337.50;;;17.42;55.75
8049;BME280;20935;42.660;23.342;2023-04-20T13:03:02;94345.19;;;17.44;54.38
8049;BME280;20935;42.660;23.342;2023-04-20T13:05:48;94336.03;;;17.10;55.56
8049;BME280;20935;42.660;23.342;2023-04-20T13:08:33;94345.53;;;17.24;55.50
8049;BME280;20935;42.660;23.342;2023-04-20T13:11:20;94340.97;;;17.03;55.07
8049;BME280;20935;42.660;23.342;2023-04-20T13:14:05;94337.97;;;17.10;54.11
8049;BME280;20935;42.660;23.342;2023-04-20T13:16:53;94341.41;;;17.01;54.21
8049;BME280;20935;42.660;23.342;2023-04-20T13:19:40;94341.06;;;16.90;54.69
8049;BME280;20935;42.660;23.342;2023-04-20T13:22:25;94343.34;;;16.70;55.60
8049;BME280;20935;42.660;23.342;2023-04-20T13:25:10;94340.88;;;16.41;57.41
8049;BME280;20935;42.660;23.342;2023-04-20T13:27:56;94336.69;;;16.06;59.60
8049;BME280;20935;42.660;23.342;2023-04-20T13:30:42;94335.66;;;15.56;66.79
8049;BME280;20935;42.660;23.342;2023-04-20T13:33:28;94337.72;;;15.52;69.00
8049;BME280;20935;42.660;23.342;2023-04-20T13:36:15;94337.34;;;14.62;73.48
8049;BME280;20935;42.660;23.342;2023-04-20T13:39:00;94335.72;;;14.51;75.30
8049;BME280;20935;42.660;23.342;2023-04-20T13:41:47;94338.88;;;14.75;73.67
8049;BME280;20935;42.660;23.342;2023-04-20T13:44:33;94342.78;;;14.87;75.07
8049;BME280;20935;42.660;23.342;2023-04-20T13:47:18;94334.81;;;14.96;76.00
8049;BME280;20935;42.660;23.342;2023-04-20T13:50:05;94337.94;;;15.07;77.96
8049;BME280;20935;42.660;23.342;2023-04-20T13:52:52;94334.38;;;14.85;79.67
8049;BME280;20935;42.660;23.342;2023-04-20T13:55:37;94332.94;;;14.93;79.33
8049;BME280;20935;42.660;23.342;2023-04-20T13:58:22;94337.69;;;14.76;81.26
8049;BME280;20935;42.660;23.342;2023-04-20T14:01:09;94333.72;;;14.81;81.61
8049;BME280;20935;42.660;23.342;2023-04-20T14:03:55;94345.59;;;14.96;78.23
8049;BME280;20935;42.660;23.342;2023-04-20T14:06:40;94341.81;;;14.39;83.58
8049;BME280;20935;42.660;23.342;2023-04-20T14:09:29;94333.81;;;14.90;83.03
8049;BME280;20935;42.660;23.342;2023-04-20T14:12:15;94350.53;;;15.10;78.38
8049;BME280;20935;42.660;23.342;2023-04-20T14:15:01;94352.41;;;15.51;75.14
8049;BME280;20935;42.660;23.342;2023-04-20T14:17:46;94355.19;;;16.07;73.40
8049;BME280;20935;42.660;23.342;2023-04-20T14:20:32;94350.06;;;15.87;74.23
8049;BME280;20935;42.660;23.342;2023-04-20T14:23:17;94350.56;;;15.95;74.34
8049;BME280;20935;42.660;23.342;2023-04-20T14:26:04;94355.97;;;15.95;72.77
8049;BME280;20935;42.660;23.342;2023-04-20T14:28:50;94355.38;;;15.78;73.31
8049;BME280;20935;42.660;23.342;2023-04-20T14:31:36;94351.63;;;15.50;73.96
8049;BME280;20935;42.660;23.342;2023-04-20T14:34:21;94351.50;;;15.29;77.41